In Rescue
 
Open Full Screen Window  High Contrast Mode
March 19, 2019 5:45 PM CDT
Weather Information
Wind Direction
  ---
Wind Speed
  00 kt (0 mph)
Wind Gust
  00 kt (0 mph)
Altimeter
30.14 in
Visibility
10 SM
Temperature
06° C
43° F
Dewpoint
01° C
34° F
Humidity
71%
1hr Rain Fall
00.00 in.
24hr Rain Fall
00.00 in.
Sky Condition
Clear
VFR

METAR KMGG 192245Z AUTO 00000KT 10SM CLR 06/01 A3014 RMK AO2 T00560005

FAA Disclaimer: The data displayed is for advisory purposes only and is not to be used for flight planning or operations.